createdAt,value
2023-04-08T00:00:49.382Z,16.65
2023-04-08T00:03:16.299Z,69.50
2023-04-08T00:05:43.150Z,43.38
2023-04-08T00:08:09.767Z,33.38
2023-04-08T00:10:36.664Z,31.23
2023-04-08T00:13:03.351Z,55.60
2023-04-08T00:15:30.300Z,53.05
2023-04-08T00:17:56.957Z,19.83
2023-04-08T00:20:24.560Z,46.08
2023-04-08T00:22:51.259Z,45.45
2023-04-08T00:25:18.352Z,68.75
2023-04-08T00:27:45.014Z,48.47
2023-04-08T00:30:11.836Z,66.70
2023-04-08T00:32:38.771Z,30.88
2023-04-08T00:35:05.801Z,38.78
2023-04-08T00:37:32.760Z,41.75
2023-04-08T00:39:59.458Z,48.15
2023-04-08T00:42:26.282Z,22.17
2023-04-08T00:44:52.924Z,48.03
2023-04-08T00:47:19.621Z,49.72
2023-04-08T00:49:46.419Z,40.45
2023-04-08T00:52:13.622Z,30.00
2023-04-08T00:54:41.368Z,48.00
2023-04-08T00:57:08.193Z,31.15
2023-04-08T00:59:36.174Z,43.13
2023-04-08T01:02:27.353Z,73.53
2023-04-08T01:05:03.458Z,21.33
2023-04-08T01:07:45.814Z,29.02
2023-04-08T01:10:24.049Z,48.53
2023-04-08T01:12:54.794Z,44.55
2023-04-08T01:15:22.124Z,36.35
2023-04-08T01:17:51.420Z,46.85
2023-04-08T01:20:19.100Z,22.60
2023-04-08T01:23:01.379Z,17.38
2023-04-08T01:25:32.350Z,23.35
2023-04-08T01:28:07.707Z,34.72
2023-04-08T01:30:34.804Z,38.88
2023-04-08T01:33:05.810Z,31.40
2023-04-08T01:35:33.215Z,22.88
2023-04-08T01:38:01.035Z,27.45
2023-04-08T01:40:27.783Z,29.83
2023-04-08T01:42:57.060Z,18.52
2023-04-08T01:45:24.129Z,24.85
2023-04-08T01:47:51.817Z,35.88
2023-04-08T01:50:19.454Z,31.70
2023-04-08T01:52:48.170Z,16.50
2023-04-08T01:55:15.326Z,41.55
2023-04-08T01:57:44.780Z,52.33
2023-04-08T02:00:12.892Z,38.90
2023-04-08T02:02:51.624Z,31.83
2023-04-08T02:05:19.226Z,25.70
2023-04-08T02:07:47.889Z,99.45
2023-04-08T02:10:14.766Z,55.85
2023-04-08T02:12:41.664Z,42.95
2023-04-08T02:15:12.235Z,50.80
2023-04-08T02:17:52.606Z,56.05
2023-04-08T02:20:34.992Z,28.42
2023-04-08T02:23:12.104Z,23.20
2023-04-08T02:25:40.464Z,49.42
2023-04-08T02:28:11.122Z,43.20
2023-04-08T02:30:41.890Z,49.58
2023-04-08T02:33:09.202Z,148.00
2023-04-08T02:35:36.622Z,90.75
2023-04-08T02:38:03.311Z,77.90
2023-04-08T02:40:35.413Z,108.35
2023-04-08T02:43:03.486Z,58.72
2023-04-08T02:45:31.960Z,53.08
2023-04-08T02:48:03.677Z,57.97
2023-04-08T02:50:30.312Z,65.65
2023-04-08T02:52:57.088Z,79.18
2023-04-08T02:55:23.837Z,67.53
2023-04-08T02:57:50.502Z,48.92
2023-04-08T03:00:17.402Z,54.15
2023-04-08T03:02:44.218Z,52.80
2023-04-08T03:05:10.963Z,27.25
2023-04-08T03:07:37.734Z,78.50
2023-04-08T03:10:04.779Z,41.45
2023-04-08T03:12:31.540Z,40.42
2023-04-08T03:14:58.160Z,59.10
2023-04-08T03:17:24.863Z,47.63
2023-04-08T03:19:51.529Z,36.08
2023-04-08T03:22:19.425Z,19.83
2023-04-08T03:24:46.195Z,51.97
2023-04-08T03:27:12.842Z,18.42
2023-04-08T03:29:39.603Z,20.27
2023-04-08T03:32:06.628Z,66.50
2023-04-08T03:34:34.702Z,37.97
2023-04-08T03:37:01.802Z,30.65
2023-04-08T03:39:28.576Z,38.88
2023-04-08T03:41:55.290Z,22.63
2023-04-08T03:44:21.883Z,28.13
2023-04-08T03:46:48.586Z,36.25
2023-04-08T03:49:15.635Z,21.27
2023-04-08T03:51:42.235Z,42.17
2023-04-08T03:54:08.916Z,26.20
2023-04-08T03:56:35.512Z,29.60
2023-04-08T03:59:02.267Z,50.47
2023-04-08T04:01:30.140Z,40.58
2023-04-08T04:03:56.941Z,51.28
2023-04-08T04:06:23.782Z,26.80
2023-04-08T04:08:50.746Z,21.05
2023-04-08T04:11:17.623Z,16.75
2023-04-08T04:13:44.300Z,20.10
2023-04-08T04:16:11.042Z,26.83
2023-04-08T04:18:37.709Z,36.40
2023-04-08T04:21:07.622Z,29.13
2023-04-08T04:23:34.275Z,29.30
2023-04-08T04:26:01.326Z,26.63
2023-04-08T04:28:27.973Z,22.35
2023-04-08T04:30:56.440Z,27.50
2023-04-08T04:33:23.279Z,25.42
2023-04-08T04:35:50.063Z,22.58
2023-04-08T04:38:17.427Z,34.15
2023-04-08T04:40:44.355Z,22.15
2023-04-08T04:43:11.256Z,25.63
2023-04-08T04:45:39.989Z,25.40
2023-04-08T04:48:06.906Z,26.58
2023-04-08T04:50:33.625Z,29.20
2023-04-08T04:53:00.383Z,24.50
2023-04-08T04:55:27.231Z,23.30
2023-04-08T04:57:53.871Z,24.85
2023-04-08T05:00:20.512Z,25.67
2023-04-08T05:02:47.357Z,25.27
2023-04-08T05:05:14.156Z,27.20
2023-04-08T05:07:40.926Z,22.20
2023-04-08T05:10:07.916Z,29.42
2023-04-08T05:12:34.520Z,25.27
2023-04-08T05:15:02.117Z,25.55
2023-04-08T05:17:28.810Z,30.83
2023-04-08T05:19:55.507Z,28.88
2023-04-08T05:22:22.254Z,28.40
2023-04-08T05:24:48.955Z,25.27
2023-04-08T05:27:15.676Z,23.88
2023-04-08T05:29:42.462Z,23.55
2023-04-08T05:32:09.269Z,24.05
2023-04-08T05:34:36.035Z,22.95
2023-04-08T05:37:02.663Z,21.55
2023-04-08T05:39:29.329Z,18.40
2023-04-08T05:41:56.079Z,23.45
2023-04-08T05:44:22.741Z,27.58
2023-04-08T05:46:49.461Z,33.67
2023-04-08T05:49:17.482Z,25.58
2023-04-08T05:51:44.171Z,26.25
2023-04-08T05:54:10.941Z,24.30
2023-04-08T05:56:37.566Z,25.17
2023-04-08T05:59:04.184Z,25.05
2023-04-08T06:01:31.154Z,25.35
2023-04-08T06:03:58.160Z,26.10
2023-04-08T06:06:26.095Z,26.10
2023-04-08T06:08:52.907Z,27.75
2023-04-08T06:11:19.736Z,23.70
2023-04-08T06:13:46.389Z,26.10
2023-04-08T06:16:21.365Z,25.58
2023-04-08T06:18:48.538Z,28.85
2023-04-08T06:21:15.717Z,26.45
2023-04-08T06:23:42.295Z,30.25
2023-04-08T06:26:09.245Z,24.10
2023-04-08T06:28:36.281Z,27.77
2023-04-08T06:31:03.039Z,25.98
2023-04-08T06:33:29.689Z,25.48
2023-04-08T06:36:06.845Z,24.83
2023-04-08T06:38:33.967Z,27.15
2023-04-08T06:41:07.296Z,25.85
2023-04-08T06:43:38.004Z,24.67
2023-04-08T06:46:04.940Z,23.95
2023-04-08T06:48:31.649Z,21.77
2023-04-08T06:51:00.501Z,29.45
2023-04-08T06:53:29.458Z,29.02
2023-04-08T06:55:56.297Z,26.48
2023-04-08T06:58:23.016Z,21.25
2023-04-08T07:00:49.696Z,30.23
2023-04-08T07:03:16.557Z,20.00
2023-04-08T07:05:43.621Z,22.02
2023-04-08T07:08:10.460Z,20.80
2023-04-08T07:10:37.118Z,24.88
2023-04-08T07:13:03.923Z,21.08
2023-04-08T07:15:30.938Z,20.77
2023-04-08T07:17:58.838Z,20.17
2023-04-08T07:20:31.573Z,15.88
2023-04-08T07:22:58.793Z,27.75
2023-04-08T07:25:25.469Z,18.63
2023-04-08T07:27:52.853Z,17.10
2023-04-08T07:30:19.842Z,17.85
2023-04-08T07:32:46.947Z,22.40
2023-04-08T07:35:13.743Z,20.17
2023-04-08T07:37:40.565Z,21.35
2023-04-08T07:40:07.858Z,20.13
2023-04-08T07:42:34.466Z,17.10
2023-04-08T07:45:01.106Z,14.75
2023-04-08T07:47:27.986Z,16.17
2023-04-08T07:49:54.679Z,17.00
2023-04-08T07:52:21.540Z,17.27
2023-04-08T07:54:48.274Z,17.13
2023-04-08T07:57:15.169Z,16.88
2023-04-08T07:59:42.023Z,17.13
2023-04-08T08:02:08.703Z,16.85
2023-04-08T08:04:35.616Z,17.05
2023-04-08T08:07:02.430Z,17.27
2023-04-08T08:09:30.604Z,15.05
2023-04-08T08:11:58.785Z,17.25
2023-04-08T08:14:26.725Z,17.48
2023-04-08T08:16:54.363Z,14.77
2023-04-08T08:19:21.333Z,17.60
2023-04-08T08:21:48.048Z,14.73
2023-04-08T08:24:14.685Z,12.98
2023-04-08T08:26:41.854Z,13.27
2023-04-08T08:29:09.016Z,14.38
2023-04-08T08:31:35.858Z,16.70
2023-04-08T08:34:02.921Z,12.63
2023-04-08T08:36:29.699Z,12.25
2023-04-08T08:38:56.375Z,14.10
2023-04-08T08:41:23.116Z,13.20
2023-04-08T08:43:50.028Z,13.70
2023-04-08T08:46:18.122Z,15.52
2023-04-08T08:48:45.399Z,12.82
2023-04-08T08:51:13.063Z,13.43
2023-04-08T08:53:39.758Z,14.55
2023-04-08T08:58:39.222Z,15.23
2023-04-08T09:01:31.677Z,15.10
2023-04-08T09:04:18.318Z,14.40
2023-04-08T09:07:09.996Z,12.02
2023-04-08T09:09:50.428Z,13.80
2023-04-08T09:12:18.244Z,14.13
2023-04-08T09:14:44.951Z,10.60
2023-04-08T09:17:11.648Z,13.65
2023-04-08T09:19:38.382Z,14.35
2023-04-08T09:22:10.042Z,13.82
2023-04-08T09:24:37.353Z,14.35
2023-04-08T09:27:07.098Z,16.83
2023-04-08T09:29:37.267Z,13.75
2023-04-08T09:32:06.221Z,13.57
2023-04-08T09:34:34.379Z,12.05
2023-04-08T09:37:01.451Z,10.98
2023-04-08T09:39:28.250Z,13.55
2023-04-08T09:41:57.248Z,11.02
2023-04-08T09:44:26.636Z,12.05
2023-04-08T09:47:02.071Z,13.70
2023-04-08T09:49:38.321Z,10.13
2023-04-08T09:52:08.704Z,9.57
2023-04-08T09:54:46.871Z,11.07
2023-04-08T09:57:22.531Z,14.18
2023-04-08T10:00:01.376Z,11.57
2023-04-08T10:02:33.387Z,9.38
2023-04-08T10:05:01.518Z,10.70
2023-04-08T10:07:28.268Z,10.98
2023-04-08T10:09:55.035Z,9.80
2023-04-08T10:12:41.863Z,12.85
2023-04-08T10:15:28.229Z,11.18
2023-04-08T10:18:05.552Z,11.07
2023-04-08T10:20:38.371Z,11.85
2023-04-08T10:23:09.362Z,13.85
2023-04-08T10:25:40.493Z,9.75
2023-04-08T10:28:13.008Z,12.30
2023-04-08T10:30:40.507Z,10.43
2023-04-08T10:33:30.100Z,11.10
2023-04-08T10:36:11.393Z,14.90
2023-04-08T10:38:39.003Z,14.85
2023-04-08T10:41:05.708Z,10.02
2023-04-08T10:43:35.798Z,11.18
2023-04-08T10:46:03.288Z,13.85
2023-04-08T10:48:30.030Z,10.18
2023-04-08T10:51:00.957Z,11.50
2023-04-08T10:53:29.332Z,10.32
2023-04-08T10:56:12.998Z,9.88
2023-04-08T10:58:50.562Z,13.98
2023-04-08T11:01:17.823Z,10.25
2023-04-08T11:03:44.938Z,12.85
2023-04-08T11:06:11.913Z,15.27
2023-04-08T11:08:38.861Z,12.88
2023-04-08T11:11:10.804Z,11.20
2023-04-08T11:13:42.832Z,10.93
2023-04-08T11:16:18.306Z,11.10
2023-04-08T11:18:45.966Z,10.85
2023-04-08T11:21:12.799Z,12.13
2023-04-08T11:23:39.424Z,10.20
2023-04-08T11:26:06.530Z,9.18
2023-04-08T11:28:33.862Z,10.57
2023-04-08T11:31:00.627Z,14.20
2023-04-08T11:33:27.373Z,12.20
2023-04-08T11:35:54.156Z,11.88
2023-04-08T11:38:24.803Z,10.88
2023-04-08T11:40:55.373Z,11.73
2023-04-08T11:43:22.201Z,11.65
2023-04-08T11:45:49.020Z,9.20
2023-04-08T11:48:17.610Z,12.30
2023-04-08T11:50:45.119Z,13.32
2023-04-08T11:53:22.384Z,11.48
2023-04-08T11:55:49.084Z,12.93
2023-04-08T11:58:16.394Z,12.95
2023-04-08T12:00:43.875Z,14.40
2023-04-08T12:03:11.334Z,11.02
2023-04-08T12:05:38.427Z,11.02
2023-04-08T12:08:05.170Z,12.35
2023-04-08T12:10:33.170Z,12.02
2023-04-08T12:12:59.863Z,12.30
2023-04-08T12:15:26.757Z,13.05
2023-04-08T12:17:53.511Z,10.38
2023-04-08T12:20:20.229Z,12.77
2023-04-08T12:22:46.993Z,11.10
2023-04-08T12:25:13.647Z,10.50
2023-04-08T12:27:40.565Z,12.05
2023-04-08T12:30:07.839Z,10.70
2023-04-08T12:32:34.754Z,11.30
2023-04-08T12:35:01.587Z,13.43
2023-04-08T12:37:28.682Z,15.68
2023-04-08T12:39:55.612Z,13.30
2023-04-08T12:42:22.400Z,22.30
2023-04-08T12:44:49.036Z,14.40
2023-04-08T12:47:15.924Z,14.50
2023-04-08T12:49:49.272Z,14.57
2023-04-08T12:52:17.381Z,20.35
2023-04-08T12:54:44.392Z,15.45
2023-04-08T12:57:11.241Z,17.35
2023-04-08T12:59:40.071Z,14.38
2023-04-08T13:02:07.767Z,16.13
2023-04-08T13:04:34.854Z,16.40
2023-04-08T13:07:01.675Z,13.85
2023-04-08T13:09:30.643Z,15.02
2023-04-08T13:11:58.345Z,16.48
2023-04-08T13:14:25.531Z,14.30
2023-04-08T13:16:52.553Z,17.08
2023-04-08T13:19:19.360Z,14.13
2023-04-08T13:21:46.412Z,17.13
2023-04-08T13:24:21.333Z,17.63
2023-04-08T13:26:48.034Z,14.88
2023-04-08T13:29:14.764Z,18.05
2023-04-08T13:31:41.458Z,14.77
2023-04-08T13:34:08.247Z,18.10
2023-04-08T13:36:34.866Z,18.17
2023-04-08T13:39:01.554Z,15.88
2023-04-08T13:41:28.519Z,15.38
2023-04-08T13:43:56.620Z,16.77
2023-04-08T13:46:23.550Z,15.02
2023-04-08T13:48:50.674Z,17.40
2023-04-08T13:51:17.785Z,13.60
2023-04-08T13:53:44.438Z,17.42
2023-04-08T13:56:11.078Z,13.52
2023-04-08T13:58:37.752Z,15.48
2023-04-08T14:01:04.454Z,15.70
2023-04-08T14:03:31.192Z,17.92
2023-04-08T14:06:00.255Z,13.32
2023-04-08T14:08:28.473Z,14.23
2023-04-08T14:10:58.285Z,17.40
2023-04-08T14:13:24.933Z,14.23
2023-04-08T14:15:53.724Z,15.60
2023-04-08T14:18:21.573Z,14.68
2023-04-08T14:20:48.222Z,17.30
2023-04-08T14:23:14.826Z,16.20
2023-04-08T14:25:41.660Z,15.60
2023-04-08T14:28:08.379Z,14.60
2023-04-08T14:30:36.193Z,16.92
2023-04-08T14:33:04.694Z,16.67
2023-04-08T14:35:31.484Z,15.80
2023-04-08T14:37:58.468Z,17.17
2023-04-08T14:40:25.446Z,14.05
2023-04-08T14:42:52.097Z,17.80
2023-04-08T14:45:19.038Z,18.38
2023-04-08T14:47:46.123Z,15.90
2023-04-08T14:50:12.934Z,17.08
2023-04-08T14:52:39.673Z,18.05
2023-04-08T14:55:06.892Z,17.67
2023-04-08T14:57:33.734Z,16.52
2023-04-08T15:00:00.775Z,18.67
2023-04-08T15:02:27.619Z,17.55
2023-04-08T15:04:54.314Z,18.17
2023-04-08T15:07:20.928Z,17.48
2023-04-08T15:09:47.666Z,18.88
2023-04-08T15:12:14.320Z,16.58
2023-04-08T15:14:41.029Z,17.08
2023-04-08T15:17:07.660Z,21.00
2023-04-08T15:19:34.374Z,20.80
2023-04-08T15:22:01.129Z,18.92
2023-04-08T15:24:28.882Z,22.33
2023-04-08T15:26:56.643Z,24.33
2023-04-08T15:29:24.525Z,27.08
2023-04-08T15:31:51.294Z,22.63
2023-04-08T15:34:17.994Z,22.65
2023-04-08T15:36:45.386Z,22.80
2023-04-08T15:39:12.190Z,23.55
2023-04-08T15:41:38.943Z,23.50
2023-04-08T15:44:05.798Z,25.00
2023-04-08T15:46:32.845Z,31.92
2023-04-08T15:49:01.361Z,30.40
2023-04-08T15:51:28.734Z,36.13
2023-04-08T15:53:55.494Z,29.77
2023-04-08T15:56:22.473Z,29.45
2023-04-08T15:58:49.428Z,30.00
2023-04-08T16:01:16.992Z,29.63
2023-04-08T16:03:43.806Z,43.75
2023-04-08T16:06:10.660Z,26.85
2023-04-08T16:08:37.738Z,30.23
2023-04-08T16:11:05.304Z,25.45
2023-04-08T16:13:32.500Z,24.92
2023-04-08T16:16:02.092Z,27.95
2023-04-08T16:18:29.918Z,23.23
2023-04-08T16:20:57.187Z,26.58
2023-04-08T16:23:24.018Z,27.75
2023-04-08T16:25:50.798Z,28.75
2023-04-08T16:28:18.877Z,31.50
2023-04-08T16:30:47.687Z,28.42
2023-04-08T16:33:15.001Z,31.77
2023-04-08T16:35:45.560Z,30.98
2023-04-08T16:38:12.372Z,31.50
2023-04-08T16:40:39.375Z,34.38
2023-04-08T16:43:06.409Z,38.42
2023-04-08T16:45:33.428Z,36.47
2023-04-08T16:48:00.543Z,32.92
2023-04-08T16:50:28.552Z,33.15
2023-04-08T16:52:55.553Z,37.60
2023-04-08T16:55:22.585Z,37.67
2023-04-08T16:57:49.372Z,30.58
2023-04-08T17:00:18.706Z,27.75
2023-04-08T17:02:47.406Z,27.00
2023-04-08T17:05:15.274Z,26.17
2023-04-08T17:07:42.064Z,26.40
2023-04-08T17:10:09.170Z,27.20
2023-04-08T17:12:36.393Z,27.02
2023-04-08T17:15:03.755Z,27.98
2023-04-08T17:17:34.625Z,29.45
2023-04-08T17:20:03.424Z,29.10
2023-04-08T17:22:30.964Z,29.60
2023-04-08T17:24:57.652Z,30.05
2023-04-08T17:27:24.461Z,30.50
2023-04-08T17:29:56.387Z,33.28
2023-04-08T17:32:24.813Z,30.27
2023-04-08T17:34:52.744Z,31.00
2023-04-08T17:37:19.624Z,31.92
2023-04-08T17:39:46.593Z,34.80
2023-04-08T17:42:13.509Z,31.65
2023-04-08T17:44:42.200Z,28.92
2023-04-08T17:47:09.085Z,34.00
2023-04-08T17:49:36.045Z,45.88
2023-04-08T17:52:05.442Z,40.92
2023-04-08T17:54:37.708Z,46.63
2023-04-08T17:57:04.463Z,53.03
2023-04-08T17:59:33.566Z,50.92
2023-04-08T18:02:00.386Z,44.60
2023-04-08T18:04:28.585Z,50.60
2023-04-08T18:06:55.500Z,48.17
2023-04-08T18:09:22.137Z,51.00
2023-04-08T18:11:49.090Z,57.75
2023-04-08T18:14:19.900Z,54.28
2023-04-08T18:16:46.537Z,66.75
2023-04-08T18:19:13.365Z,53.50
2023-04-08T18:21:40.093Z,51.42
2023-04-08T18:24:08.763Z,41.65
2023-04-08T18:26:36.426Z,34.95
2023-04-08T18:29:03.150Z,33.63
2023-04-08T18:31:29.947Z,40.13
2023-04-08T18:33:56.731Z,36.75
2023-04-08T18:36:23.506Z,38.55
2023-04-08T18:38:50.589Z,34.40
2023-04-08T18:41:19.014Z,36.20
2023-04-08T18:43:45.839Z,36.67
2023-04-08T18:46:12.640Z,37.67
2023-04-08T18:48:39.528Z,34.80
2023-04-08T18:51:06.443Z,42.95
2023-04-08T18:53:33.140Z,36.47
2023-04-08T18:56:00.235Z,35.72
2023-04-08T18:58:29.802Z,43.83
2023-04-08T19:00:56.463Z,36.47
2023-04-08T19:03:23.402Z,37.83
2023-04-08T19:05:51.889Z,37.08
2023-04-08T19:08:20.440Z,37.20
2023-04-08T19:10:47.183Z,33.78
2023-04-08T19:13:13.968Z,29.23
2023-04-08T19:15:40.766Z,34.80
2023-04-08T19:18:10.280Z,30.67
2023-04-08T19:20:37.879Z,29.00
2023-04-08T19:23:07.119Z,28.52
2023-04-08T19:25:33.938Z,37.38
2023-04-08T19:28:00.770Z,33.53
2023-04-08T19:30:27.587Z,32.70
2023-04-08T19:32:54.375Z,35.05
2023-04-08T19:35:21.172Z,38.28
2023-04-08T19:37:48.005Z,33.92
2023-04-08T19:40:14.829Z,32.22
2023-04-08T19:42:41.598Z,36.08
2023-04-08T19:45:08.784Z,31.65
2023-04-08T19:47:35.782Z,35.45
2023-04-08T19:50:04.026Z,29.55
2023-04-08T19:52:31.805Z,34.55
2023-04-08T19:54:58.538Z,31.55
2023-04-08T19:57:25.508Z,31.75
2023-04-08T19:59:55.618Z,37.80
2023-04-08T20:02:24.501Z,31.17
2023-04-08T20:04:51.606Z,36.42
2023-04-08T20:07:18.294Z,32.85
2023-04-08T20:09:44.971Z,36.78
2023-04-08T20:12:12.240Z,34.30
2023-04-08T20:14:42.138Z,39.30
2023-04-08T20:17:09.582Z,41.47
2023-04-08T20:19:36.396Z,39.00
2023-04-08T20:22:03.228Z,35.20
2023-04-08T20:24:30.066Z,39.60
2023-04-08T20:26:56.885Z,32.33
2023-04-08T20:29:23.694Z,37.83
2023-04-08T20:31:51.285Z,35.65
2023-04-08T20:34:17.970Z,35.88
2023-04-08T20:36:45.055Z,31.85
2023-04-08T20:39:11.970Z,30.38
2023-04-08T20:41:38.694Z,35.55
2023-04-08T20:44:07.024Z,34.67
2023-04-08T20:46:35.153Z,40.97
2023-04-08T20:49:03.633Z,39.90
2023-04-08T20:51:32.640Z,42.78
2023-04-08T20:53:59.786Z,41.63
2023-04-08T20:56:26.508Z,41.70
2023-04-08T20:58:53.814Z,45.72
2023-04-08T21:01:21.837Z,43.35
2023-04-08T21:03:49.165Z,45.17
2023-04-08T21:06:17.503Z,42.50
2023-04-08T21:08:44.299Z,42.95
2023-04-08T21:11:11.421Z,49.22
2023-04-08T21:13:38.179Z,53.55
2023-04-08T21:16:05.883Z,53.67
2023-04-08T21:18:33.410Z,58.25
2023-04-08T21:21:00.847Z,55.33
2023-04-08T21:23:28.092Z,54.05
2023-04-08T21:25:54.887Z,40.53
2023-04-08T21:28:21.560Z,44.22
2023-04-08T21:30:48.292Z,39.90
2023-04-08T21:33:15.499Z,36.58
2023-04-08T21:35:42.492Z,39.05
2023-04-08T21:38:09.296Z,42.42
2023-04-08T21:40:36.065Z,40.50
2023-04-08T21:43:02.730Z,38.40
2023-04-08T21:45:30.010Z,38.97
2023-04-08T21:47:57.129Z,40.22
2023-04-08T21:50:24.550Z,44.55
2023-04-08T21:52:51.248Z,47.05
2023-04-08T21:55:17.893Z,55.30
2023-04-08T21:57:44.596Z,62.00
2023-04-08T22:00:13.591Z,62.08
2023-04-08T22:02:43.954Z,58.50
2023-04-08T22:05:11.580Z,60.03
2023-04-08T22:07:38.227Z,62.88
2023-04-08T22:10:05.355Z,66.88
2023-04-08T22:12:31.986Z,62.92
2023-04-08T22:14:58.667Z,61.80
2023-04-08T22:17:25.723Z,55.25
2023-04-08T22:19:52.385Z,53.65
2023-04-08T22:22:19.051Z,47.95
2023-04-08T22:24:45.780Z,49.75
2023-04-08T22:27:12.579Z,52.70
2023-04-08T22:29:39.282Z,55.20
2023-04-08T22:32:06.413Z,51.33
2023-04-08T22:34:33.049Z,50.80
2023-04-08T22:36:59.813Z,54.55
2023-04-08T22:39:27.517Z,51.85
2023-04-08T22:41:54.369Z,53.03
2023-04-08T22:44:21.592Z,49.00
2023-04-08T22:46:48.322Z,48.95
2023-04-08T22:49:14.967Z,46.08
2023-04-08T22:51:43.086Z,49.22
2023-04-08T22:54:09.782Z,52.22
2023-04-08T22:56:36.631Z,52.63
2023-04-08T22:59:03.389Z,56.30
2023-04-08T23:01:30.342Z,63.92
2023-04-08T23:03:57.107Z,58.78
2023-04-08T23:06:23.761Z,62.70
2023-04-08T23:08:50.609Z,61.03
2023-04-08T23:11:17.519Z,62.15
2023-04-08T23:13:44.295Z,61.78
2023-04-08T23:16:11.009Z,58.78
2023-04-08T23:18:37.770Z,61.70
2023-04-08T23:21:05.649Z,58.45
2023-04-08T23:23:32.569Z,60.15
2023-04-08T23:25:59.230Z,61.92
2023-04-08T23:28:26.048Z,68.18
2023-04-08T23:30:52.941Z,57.95
2023-04-08T23:33:19.731Z,50.97
2023-04-08T23:35:46.800Z,55.50
2023-04-08T23:38:13.630Z,50.47
2023-04-08T23:40:40.348Z,59.25
2023-04-08T23:43:07.088Z,51.53
2023-04-08T23:45:33.963Z,49.45
2023-04-08T23:48:00.839Z,46.67
2023-04-08T23:50:27.669Z,47.65
2023-04-08T23:52:54.356Z,49.97
2023-04-08T23:55:21.088Z,49.42
2023-04-08T23:57:49.232Z,45.03
